Time;durP1;ratioP1;P1;durP2;ratioP2;P2;SDS_P1;SDS_P2;PMS_P1;PMS_P2;Temp;Humidity;BMP_temperature;BMP_pressure;BME280_temperature;BME280_humidity;BME280_pressure;Samples;Min_cycle;Max_cycle;Signal;HPM_P1;HPM_P2
2023/04/10 00:01:09;;;;;;;85.03;35.38;;;7.90;81.20;;;;;;4970538;28;20081;-86
2023/04/10 00:03:36;;;;;;;85.97;34.28;;;7.80;81.20;;;;;;4967512;28;20058;-86
2023/04/10 00:06:04;;;;;;;79.03;34.40;;;7.90;81.00;;;;;;4981105;28;20057;-87
2023/04/10 00:08:31;;;;;;;82.90;33.33;;;7.90;81.10;;;;;;4990254;28;20096;-87
2023/04/10 00:10:58;;;;;;;90.70;34.55;;;7.90;81.10;;;;;;4985460;28;20141;-87
2023/04/10 00:13:25;;;;;;;87.35;34.00;;;7.90;81.00;;;;;;4997029;28;20051;-87
2023/04/10 00:15:52;;;;;;;84.97;33.90;;;7.90;80.90;;;;;;4982697;28;20145;-87
2023/04/10 00:18:19;;;;;;;92.37;35.27;;;7.90;81.00;;;;;;4989536;28;20049;-87
2023/04/10 00:20:46;;;;;;;85.28;33.45;;;7.80;81.20;;;;;;4974259;28;20507;-87
2023/04/10 00:23:13;;;;;;;90.93;32.92;;;7.80;81.40;;;;;;4992510;28;20496;-87
2023/04/10 00:25:40;;;;;;;91.50;35.35;;;7.80;81.50;;;;;;4982508;28;20057;-87
2023/04/10 00:28:07;;;;;;;88.53;36.05;;;7.80;81.40;;;;;;4971059;28;20042;-86
2023/04/10 00:30:34;;;;;;;92.30;34.63;;;7.80;81.60;;;;;;4993742;28;20044;-87
2023/04/10 00:33:02;;;;;;;88.72;35.55;;;7.80;81.50;;;;;;4980919;28;20121;-86
2023/04/10 00:35:29;;;;;;;89.43;33.65;;;7.90;81.40;;;;;;4991529;28;20046;-87
2023/04/10 00:37:56;;;;;;;91.65;35.53;;;7.90;81.50;;;;;;4982764;28;20448;-86
2023/04/10 00:40:23;;;;;;;103.43;37.55;;;7.80;81.50;;;;;;4996262;28;20049;-87
2023/04/10 00:42:51;;;;;;;104.70;35.63;;;7.90;81.40;;;;;;4991153;28;20130;-87
2023/04/10 00:45:18;;;;;;;105.03;36.92;;;7.90;81.30;;;;;;4979599;28;20038;-87
2023/04/10 00:47:45;;;;;;;97.15;36.85;;;7.90;81.40;;;;;;4966130;28;20081;-87
2023/04/10 00:50:12;;;;;;;85.60;34.03;;;7.90;81.50;;;;;;4966759;28;20046;-87
2023/04/10 00:52:39;;;;;;;88.82;33.70;;;7.90;81.50;;;;;;4996326;28;20057;-87
2023/04/10 00:55:07;;;;;;;86.50;32.23;;;7.90;81.50;;;;;;4990031;28;20539;-87
2023/04/10 00:57:35;;;;;;;97.20;33.92;;;7.90;81.60;;;;;;4984450;28;20047;-87
2023/04/10 01:00:05;;;;;;;99.28;35.72;;;7.80;81.80;;;;;;4982131;28;20436;-88
2023/04/10 01:02:32;;;;;;;89.43;33.95;;;7.80;81.90;;;;;;4963384;28;20042;-87
2023/04/10 01:05:01;;;;;;;86.90;32.97;;;7.80;82.00;;;;;;4970499;28;20043;-87
2023/04/10 01:07:40;;;;;;;98.80;34.67;;;7.80;82.10;;;;;;4996190;28;20492;-88
2023/04/10 01:10:13;;;;;;;93.53;33.30;;;7.80;82.00;;;;;;4996122;28;20042;-87
2023/04/10 01:13:10;;;;;;;90.55;32.70;;;7.80;82.10;;;;;;4987219;28;20046;-87
2023/04/10 01:16:01;;;;;;;98.82;34.05;;;7.70;82.30;;;;;;4989150;28;20053;-87
2023/04/10 01:18:36;;;;;;;100.30;32.83;;;7.70;82.20;;;;;;4994626;28;20069;-86
2023/04/10 01:21:08;;;;;;;91.27;32.80;;;7.70;82.30;;;;;;4995447;28;20077;-86
2023/04/10 01:23:47;;;;;;;100.28;34.65;;;7.70;82.50;;;;;;4960005;28;20054;-86
2023/04/10 01:26:18;;;;;;;104.43;34.45;;;7.70;82.40;;;;;;4959914;28;20055;-87
2023/04/10 01:29:03;;;;;;;95.35;33.92;;;7.60;82.60;;;;;;4979722;28;20039;-87
2023/04/10 01:31:40;;;;;;;90.85;33.78;;;7.70;82.60;;;;;;4969194;28;20094;-86
2023/04/10 01:34:14;;;;;;;98.23;34.33;;;7.70;82.60;;;;;;4985334;28;20046;-87
2023/04/10 01:37:22;;;;;;;99.00;34.17;;;7.70;82.50;;;;;;4982843;28;20054;-87
2023/04/10 01:40:12;;;;;;;85.43;31.00;;;7.70;82.70;;;;;;4936304;29;20050;-87
2023/04/10 01:42:46;;;;;;;109.25;35.97;;;7.70;82.70;;;;;;4925200;29;20103;-87
2023/04/10 01:45:18;;;;;;;103.35;35.17;;;7.60;82.80;;;;;;4970073;28;20404;-87
2023/04/10 01:47:48;;;;;;;112.87;34.13;;;7.70;82.70;;;;;;4984988;28;20416;-87
2023/04/10 01:50:16;;;;;;;98.07;32.83;;;7.60;82.80;;;;;;4962254;28;20098;-87
2023/04/10 01:52:45;;;;;;;100.45;35.05;;;7.60;82.90;;;;;;4970845;28;20042;-87
2023/04/10 01:55:20;;;;;;;99.07;34.17;;;7.60;82.90;;;;;;4965333;28;20464;-86
2023/04/10 01:57:55;;;;;;;100.72;34.25;;;7.60;82.90;;;;;;4977619;28;20049;-86
2023/04/10 02:03:37;;;;;;;106.80;35.97;;;7.70;82.80;;;;;;5063994;23;20107;-90
2023/04/10 02:06:17;;;;;;;107.40;34.40;;;7.70;82.70;;;;;;4902616;29;20048;-90
2023/04/10 02:08:56;;;;;;;112.35;36.63;;;7.70;82.60;;;;;;4918196;29;20036;-90
2023/04/10 02:11:37;;;;;;;94.82;32.38;;;7.70;82.70;;;;;;4917936;29;20458;-89
2023/04/10 02:14:09;;;;;;;100.07;34.87;;;7.70;82.60;;;;;;4902120;29;20048;-90
2023/04/10 02:16:44;;;;;;;107.80;35.35;;;7.80;82.50;;;;;;4917884;29;20107;-90
2023/04/10 02:19:12;;;;;;;109.78;35.58;;;7.80;82.50;;;;;;4917731;29;20048;-89
2023/04/10 02:21:40;;;;;;;101.53;34.50;;;7.80;82.40;;;;;;4918141;29;20051;-90
2023/04/10 02:24:08;;;;;;;111.32;36.72;;;7.80;82.40;;;;;;4917814;29;20062;-90
2023/04/10 02:26:49;;;;;;;112.63;37.07;;;7.70;82.60;;;;;;4902222;29;20148;-90
2023/04/10 02:29:17;;;;;;;114.00;38.17;;;7.70;82.80;;;;;;4917126;29;20051;-91
2023/04/10 02:31:45;;;;;;;108.00;35.15;;;7.60;82.80;;;;;;4918398;29;20506;-90
2023/04/10 02:34:13;;;;;;;108.28;36.45;;;7.60;83.00;;;;;;4902044;29;20092;-90
2023/04/10 02:36:40;;;;;;;119.35;37.28;;;7.60;83.00;;;;;;4917580;29;20096;-90
2023/04/10 02:39:09;;;;;;;114.00;36.07;;;7.60;83.10;;;;;;4917818;29;20481;-90
2023/04/10 02:41:45;;;;;;;113.57;35.90;;;7.60;83.20;;;;;;4917538;29;20048;-89
2023/04/10 02:44:13;;;;;;;111.38;36.10;;;7.60;83.10;;;;;;4917525;29;20075;-89
2023/04/10 02:46:41;;;;;;;121.45;34.83;;;7.60;83.20;;;;;;4917349;29;20379;-89
2023/04/10 02:49:09;;;;;;;111.78;33.38;;;7.50;83.30;;;;;;4901926;29;20048;-89
2023/04/10 02:51:36;;;;;;;121.23;34.23;;;7.60;83.20;;;;;;4917112;29;20048;-89
2023/04/10 02:54:04;;;;;;;108.22;32.65;;;7.60;83.30;;;;;;4911641;29;20071;-89
2023/04/10 02:56:35;;;;;;;115.13;33.63;;;7.50;83.50;;;;;;4917123;29;20068;-89
2023/04/10 02:59:02;;;;;;;123.30;35.47;;;7.60;83.60;;;;;;4901453;29;20458;-88
2023/04/10 03:01:30;;;;;;;113.60;33.22;;;7.60;83.60;;;;;;4901526;29;20086;-89
2023/04/10 03:03:58;;;;;;;126.67;36.10;;;7.60;83.50;;;;;;4916924;29;20099;-89
2023/04/10 03:06:30;;;;;;;116.15;33.55;;;7.60;83.50;;;;;;4916862;29;20055;-89
2023/04/10 03:08:57;;;;;;;115.63;34.22;;;7.60;83.50;;;;;;4916848;29;20124;-90
2023/04/10 03:11:26;;;;;;;119.65;34.35;;;7.70;83.40;;;;;;4917019;29;20043;-89
2023/04/10 03:13:53;;;;;;;108.03;34.20;;;7.70;83.30;;;;;;4901316;29;20044;-90
2023/04/10 03:16:21;;;;;;;115.27;34.50;;;7.70;83.30;;;;;;4901206;29;20557;-90
2023/04/10 03:18:48;;;;;;;113.03;34.55;;;7.70;83.30;;;;;;4916925;29;20044;-90
2023/04/10 03:21:15;;;;;;;115.22;35.53;;;7.70;83.20;;;;;;4917169;29;20040;-90
2023/04/10 03:23:42;;;;;;;112.43;34.92;;;7.70;83.00;;;;;;4916905;29;20039;-90
2023/04/10 03:26:10;;;;;;;116.20;35.22;;;7.60;83.10;;;;;;4917318;29;20044;-91
2023/04/10 03:28:38;;;;;;;104.97;33.47;;;7.70;83.30;;;;;;4901628;29;20051;-92
2023/04/10 03:31:08;;;;;;;116.30;36.40;;;7.60;83.40;;;;;;4917392;29;20044;-92
2023/04/10 03:33:35;;;;;;;111.68;34.40;;;7.60;83.40;;;;;;4917344;29;20048;-92
2023/04/10 03:36:03;;;;;;;114.57;34.28;;;7.60;83.40;;;;;;4917175;29;20080;-92
2023/04/10 03:38:32;;;;;;;113.35;33.00;;;7.60;83.40;;;;;;4902026;29;20577;-92
2023/04/10 03:40:59;;;;;;;116.73;34.73;;;7.60;83.40;;;;;;4903560;29;20075;-92
2023/04/10 03:43:32;;;;;;;117.15;33.47;;;7.60;83.30;;;;;;4921085;29;20048;-92
2023/04/10 03:46:01;;;;;;;115.28;33.47;;;7.60;83.30;;;;;;4920769;29;20048;-92
2023/04/10 03:48:29;;;;;;;117.60;34.33;;;7.50;83.40;;;;;;4905014;29;20084;-92
2023/04/10 03:50:57;;;;;;;121.30;36.25;;;7.50;83.60;;;;;;4905149;29;20044;-92
2023/04/10 03:53:24;;;;;;;108.07;33.77;;;7.50;83.60;;;;;;4920786;29;20040;-91
2023/04/10 03:55:52;;;;;;;101.90;31.52;;;7.50;83.60;;;;;;4905288;29;20044;-91
2023/04/10 03:58:21;;;;;;;107.90;33.17;;;7.50;83.50;;;;;;4920752;29;20134;-91
2023/04/10 04:00:49;;;;;;;115.28;33.58;;;7.60;83.30;;;;;;4920471;29;20095;-92
2023/04/10 04:03:25;;;;;;;118.32;32.80;;;7.50;83.40;;;;;;4905883;29;20052;-91
2023/04/10 04:06:04;;;;;;;126.03;32.50;;;7.50;83.70;;;;;;4920747;29;20509;-92
2023/04/10 04:08:51;;;;;;;122.78;33.50;;;7.50;83.70;;;;;;4920547;29;20054;-91
2023/04/10 04:11:56;;;;;;;126.78;32.65;;;7.50;83.70;;;;;;4910720;29;20127;-91
2023/04/10 04:14:45;;;;;;;117.47;30.90;;;7.50;83.60;;;;;;4892636;29;20415;-91
2023/04/10 04:17:45;;;;;;;127.75;34.28;;;7.50;83.70;;;;;;4890181;29;20040;-92
2023/04/10 04:20:31;;;;;;;130.10;34.43;;;7.60;83.70;;;;;;4901873;29;20047;-90
2023/04/10 04:23:21;;;;;;;119.65;32.20;;;7.60;83.60;;;;;;4908496;29;20051;-91
2023/04/10 04:26:09;;;;;;;121.03;33.38;;;7.50;83.70;;;;;;4909154;29;20048;-91
2023/04/10 04:29:12;;;;;;;117.18;30.77;;;7.50;84.00;;;;;;4900198;29;20053;-91
2023/04/10 04:32:05;;;;;;;153.38;34.25;;;7.40;84.20;;;;;;4904068;29;20048;-91
2023/04/10 04:34:51;;;;;;;153.40;33.73;;;7.40;84.20;;;;;;4920602;29;20189;-90
2023/04/10 04:37:46;;;;;;;125.60;34.38;;;7.40;84.40;;;;;;4907474;29;20081;-91
2023/04/10 04:41:45;;;;;;;117.70;30.10;;;7.40;84.40;;;;;;4917405;29;20059;-91
2023/04/10 04:54:27;;;;;;;103.83;27.90;;;7.50;84.40;;;;;;4916459;29;20035;-91
2023/04/10 04:57:16;;;;;;;101.70;28.48;;;7.40;84.40;;;;;;4919859;29;20134;-91
2023/04/10 04:59:57;;;;;;;107.13;32.67;;;7.40;84.30;;;;;;4919731;29;20072;-91
2023/04/10 05:02:54;;;;;;;115.57;38.63;;;7.40;84.20;;;;;;4915228;29;20044;-91
2023/04/10 05:05:37;;;;;;;102.72;28.35;;;7.50;84.00;;;;;;4919923;29;20056;-91
2023/04/10 05:08:25;;;;;;;107.90;28.87;;;7.40;84.20;;;;;;4908488;29;20063;-91
2023/04/10 05:11:10;;;;;;;108.18;29.38;;;7.40;84.20;;;;;;4906312;29;20044;-91
2023/04/10 05:14:13;;;;;;;116.25;28.85;;;7.40;84.20;;;;;;4919531;29;20048;-91
2023/04/10 05:16:49;;;;;;;104.40;29.17;;;7.40;84.10;;;;;;4919369;29;20108;-91
2023/04/10 05:19:39;;;;;;;120.40;29.17;;;7.50;84.10;;;;;;4938731;29;20040;-91
2023/04/10 05:22:40;;;;;;;125.07;30.73;;;7.40;84.30;;;;;;4905210;29;20080;-91
2023/04/10 05:25:52;;;;;;;106.95;29.42;;;7.40;84.50;;;;;;4915787;29;20041;-92
2023/04/10 05:28:31;;;;;;;114.75;30.80;;;7.30;84.50;;;;;;4919910;29;20048;-90
2023/04/10 05:35:29;;;;;;;86.32;24.90;;;7.30;84.60;;;;;;4920613;29;20119;-91
2023/04/10 05:38:00;;;;;;;93.70;26.73;;;7.20;84.80;;;;;;4903739;29;20056;-91
2023/04/10 05:40:30;;;;;;;100.75;27.52;;;7.20;84.90;;;;;;4918942;29;20155;-91
2023/04/10 05:43:16;;;;;;;103.68;27.10;;;7.30;84.80;;;;;;4919158;29;20139;-90
2023/04/10 05:46:10;;;;;;;128.63;28.25;;;7.30;84.80;;;;;;4904862;29;20075;-90
2023/04/10 05:49:07;;;;;;;93.47;26.23;;;7.30;84.60;;;;;;4918933;29;20074;-90
2023/04/10 05:51:37;;;;;;;96.00;25.63;;;7.30;84.60;;;;;;4918919;29;20043;-90
2023/04/10 05:54:28;;;;;;;89.70;24.58;;;7.20;84.60;;;;;;4918728;29;20040;-90
2023/04/10 05:57:28;;;;;;;90.18;26.08;;;7.30;84.80;;;;;;4915158;29;20056;-90
2023/04/10 06:10:22;;;;;;;87.32;24.02;;;7.30;84.80;;;;;;4843194;29;20061;-92
2023/04/10 06:13:00;;;;;;;89.43;24.58;;;7.30;84.90;;;;;;4838160;29;20046;-88
2023/04/10 06:15:30;;;;;;;97.25;26.88;;;7.30;84.80;;;;;;4842503;29;20042;-88
2023/04/10 06:17:57;;;;;;;98.38;26.65;;;7.40;84.90;;;;;;4834024;29;20050;-87
2023/04/10 06:20:24;;;;;;;95.03;25.73;;;7.30;84.90;;;;;;4827383;29;20132;-88
2023/04/10 06:23:02;;;;;;;83.55;24.40;;;7.30;85.10;;;;;;4842808;29;20050;-95
2023/04/10 06:25:29;;;;;;;100.80;27.35;;;7.30;84.90;;;;;;4822068;29;20078;-90
2023/04/10 06:27:59;;;;;;;83.63;24.00;;;7.30;85.10;;;;;;4828636;29;20049;-89
